createdAt,value
2018-04-02T00:00:25.539Z,149.82
2018-04-02T00:02:53.895Z,147.80
2018-04-02T00:05:21.546Z,152.52
2018-04-02T00:07:49.141Z,155.87
2018-04-02T00:10:17.583Z,149.87
2018-04-02T00:12:45.228Z,156.25
2018-04-02T00:15:12.913Z,158.93
2018-04-02T00:17:40.531Z,155.35
2018-04-02T00:20:08.210Z,165.20
2018-04-02T00:22:35.813Z,155.95
2018-04-02T00:25:03.528Z,166.57
2018-04-02T00:27:31.939Z,162.27
2018-04-02T00:29:59.568Z,151.60
2018-04-02T00:32:27.163Z,151.12
2018-04-02T00:34:54.797Z,157.43
2018-04-02T00:37:22.415Z,159.57
2018-04-02T00:39:50.024Z,163.50
2018-04-02T00:42:17.640Z,158.85
2018-04-02T00:44:46.024Z,152.62
2018-04-02T00:47:14.528Z,158.57
2018-04-02T00:49:42.151Z,144.80
2018-04-02T00:52:09.906Z,158.73
2018-04-02T00:54:37.530Z,154.43
2018-04-02T00:57:05.192Z,141.25
2018-04-02T00:59:32.832Z,145.65
2018-04-02T01:02:00.519Z,159.23
2018-04-02T01:04:28.164Z,144.57
2018-04-02T01:06:55.812Z,146.73
2018-04-02T01:09:23.504Z,145.82
2018-04-02T01:11:51.094Z,149.77
2018-04-02T01:14:18.719Z,148.40
2018-04-02T01:16:46.386Z,162.07
2018-04-02T01:19:14.019Z,155.32
2018-04-02T01:21:41.642Z,165.02
2018-04-02T01:24:10.109Z,153.12
2018-04-02T01:26:37.738Z,166.02
2018-04-02T01:29:05.477Z,166.45
2018-04-02T01:31:33.878Z,155.55
2018-04-02T01:34:01.508Z,156.90
2018-04-02T01:36:30.060Z,157.23
2018-04-02T01:38:57.625Z,154.02
2018-04-02T01:41:25.326Z,162.98
2018-04-02T01:43:53.726Z,135.15
2018-04-02T01:46:21.456Z,157.57
2018-04-02T01:48:49.354Z,141.88
2018-04-02T01:51:16.951Z,145.90
2018-04-02T01:53:44.576Z,144.85
2018-04-02T01:56:12.339Z,157.82
2018-04-02T01:58:40.015Z,149.57
2018-04-02T02:01:07.661Z,153.02
2018-04-02T02:03:35.255Z,147.05
2018-04-02T02:06:02.875Z,142.35
2018-04-02T02:08:30.859Z,145.45
2018-04-02T02:10:58.483Z,148.45
2018-04-02T02:13:26.081Z,158.05
2018-04-02T02:15:53.736Z,122.35
2018-04-02T02:18:21.374Z,129.25
2018-04-02T02:20:49.821Z,141.43
2018-04-02T02:23:17.462Z,113.93
2018-04-02T02:25:45.907Z,106.45
2018-04-02T02:28:14.286Z,95.43
2018-04-02T02:30:43.303Z,98.78
2018-04-02T02:33:10.880Z,87.20
2018-04-02T02:35:38.489Z,88.45
2018-04-02T02:38:06.158Z,86.32
2018-04-02T02:40:34.540Z,85.10
2018-04-02T02:43:02.167Z,79.60
2018-04-02T02:45:30.648Z,93.55
2018-04-02T02:47:58.301Z,78.37
2018-04-02T02:50:26.918Z,80.90
2018-04-02T02:52:55.298Z,84.07
2018-04-02T02:55:23.006Z,81.55
2018-04-02T02:57:50.630Z,83.30
2018-04-02T03:00:18.252Z,88.47
2018-04-02T03:02:46.018Z,81.55
2018-04-02T03:05:13.678Z,83.30
2018-04-02T03:07:41.293Z,94.22
2018-04-02T03:10:09.718Z,90.18
2018-04-02T03:12:37.340Z,94.75
2018-04-02T03:15:04.933Z,99.47
2018-04-02T03:17:32.522Z,92.55
2018-04-02T03:20:00.207Z,93.78
2018-04-02T03:22:27.837Z,90.32
2018-04-02T03:24:55.419Z,102.47
2018-04-02T03:27:23.041Z,100.38
2018-04-02T03:29:50.753Z,96.12
2018-04-02T03:32:19.247Z,99.20
2018-04-02T03:34:46.971Z,96.82
2018-04-02T03:37:15.396Z,96.53
2018-04-02T03:39:43.074Z,105.95
2018-04-02T03:42:10.671Z,99.15
2018-04-02T03:44:38.287Z,93.55
2018-04-02T03:47:05.887Z,99.43
2018-04-02T03:49:33.470Z,103.65
2018-04-02T03:52:01.838Z,116.97
2018-04-02T03:54:29.450Z,116.88
2018-04-02T03:56:57.087Z,103.30
2018-04-02T03:59:25.554Z,106.20
2018-04-02T04:01:53.282Z,112.53
2018-04-02T04:04:20.884Z,120.30
2018-04-02T04:06:48.592Z,116.70
2018-04-02T04:09:16.254Z,118.18
2018-04-02T04:11:44.004Z,101.87
2018-04-02T04:14:11.711Z,109.65
2018-04-02T04:16:39.345Z,105.87
2018-04-02T04:19:06.956Z,120.07
2018-04-02T04:21:35.351Z,114.22
2018-04-02T04:24:02.961Z,112.57
2018-04-02T04:26:30.562Z,122.47
2018-04-02T04:28:58.998Z,138.57
2018-04-02T04:31:26.671Z,122.62
2018-04-02T04:33:54.326Z,128.87
2018-04-02T04:36:22.069Z,110.70
2018-04-02T04:38:49.737Z,107.97
2018-04-02T04:41:17.426Z,108.55
2018-04-02T04:43:45.110Z,107.43
2018-04-02T04:46:12.810Z,104.35
2018-04-02T04:48:40.444Z,115.25
2018-04-02T04:51:08.867Z,111.90
2018-04-02T04:53:36.548Z,126.45
2018-04-02T04:56:04.190Z,120.62
2018-04-02T04:58:31.854Z,125.35
2018-04-02T05:00:59.495Z,143.82
2018-04-02T05:03:27.277Z,137.30
2018-04-02T05:05:55.675Z,128.45
2018-04-02T05:08:23.305Z,133.30
2018-04-02T05:10:50.946Z,140.90
2018-04-02T05:13:18.615Z,123.87
2018-04-02T05:15:46.296Z,148.65
2018-04-02T05:18:14.084Z,166.57
2018-04-02T05:20:41.760Z,164.20
2018-04-02T05:23:09.379Z,167.93
2018-04-02T05:25:37.094Z,144.45
2018-04-02T05:28:06.233Z,160.02
2018-04-02T05:30:33.862Z,149.70
2018-04-02T05:33:02.304Z,164.93
2018-04-02T05:35:30.730Z,165.23
2018-04-02T05:37:58.363Z,184.43
2018-04-02T05:40:26.128Z,178.43
2018-04-02T05:42:53.750Z,157.20
2018-04-02T05:45:21.479Z,158.48
2018-04-02T05:47:49.944Z,159.25
2018-04-02T05:50:18.392Z,149.75
2018-04-02T05:52:46.014Z,146.60
2018-04-02T05:55:13.743Z,155.45
2018-04-02T05:57:42.253Z,156.12
2018-04-02T06:00:09.912Z,162.18
2018-04-02T06:02:38.287Z,165.75
2018-04-02T06:05:06.725Z,155.00
2018-04-02T06:07:34.364Z,166.15
2018-04-02T06:10:01.971Z,161.40
2018-04-02T06:12:29.584Z,161.20
2018-04-02T06:14:57.247Z,171.05
2018-04-02T06:17:24.877Z,164.60
2018-04-02T06:19:53.583Z,166.65
2018-04-02T06:22:21.261Z,173.43
2018-04-02T06:24:48.923Z,172.70
2018-04-02T06:27:16.582Z,179.90
2018-04-02T06:29:44.258Z,170.20
2018-04-02T06:32:11.867Z,159.70
2018-04-02T06:34:40.302Z,162.20
2018-04-02T06:37:07.990Z,156.80
2018-04-02T06:39:35.594Z,166.32
2018-04-02T06:42:03.238Z,155.68
2018-04-02T06:44:31.614Z,156.07
2018-04-02T06:47:00.735Z,166.95
2018-04-02T06:49:28.426Z,162.62
2018-04-02T06:51:56.032Z,163.10
2018-04-02T06:54:24.434Z,163.15
2018-04-02T06:56:52.128Z,159.43
2018-04-02T06:59:19.741Z,160.25
2018-04-02T07:01:48.169Z,153.23
2018-04-02T07:04:16.547Z,155.80
2018-04-02T07:06:44.193Z,172.52
2018-04-02T07:09:12.064Z,147.75
2018-04-02T07:11:39.774Z,153.75
2018-04-02T07:14:07.394Z,151.05
2018-04-02T07:16:35.027Z,136.57
2018-04-02T07:19:02.682Z,144.73
2018-04-02T07:21:30.439Z,139.20
2018-04-02T07:23:58.232Z,145.98
2018-04-02T07:26:26.560Z,135.90
2018-04-02T07:28:54.288Z,147.18
2018-04-02T07:31:21.981Z,144.62
2018-04-02T07:33:49.605Z,127.70
2018-04-02T07:36:17.588Z,146.07
2018-04-02T07:38:45.210Z,139.70
2018-04-02T07:41:12.876Z,134.98
2018-04-02T07:43:41.324Z,118.78
2018-04-02T07:46:08.978Z,137.30
2018-04-02T07:48:36.659Z,130.65
2018-04-02T07:51:05.407Z,127.28
2018-04-02T07:53:33.054Z,142.62
2018-04-02T07:56:00.765Z,127.00
2018-04-02T07:58:28.444Z,108.63
2018-04-02T08:00:56.847Z,129.82
2018-04-02T08:03:24.683Z,119.20
2018-04-02T08:05:52.398Z,114.72
2018-04-02T08:08:20.045Z,121.90
2018-04-02T08:10:47.711Z,109.30
2018-04-02T08:13:15.386Z,111.65
2018-04-02T08:15:43.057Z,112.03
2018-04-02T08:18:10.713Z,101.00
2018-04-02T08:20:38.435Z,106.30
2018-04-02T08:23:06.133Z,107.35
2018-04-02T08:25:33.797Z,106.40
2018-04-02T08:28:01.457Z,114.45
2018-04-02T08:30:29.099Z,97.43
2018-04-02T08:32:57.470Z,104.28
2018-04-02T08:35:25.087Z,100.68
2018-04-02T08:37:52.749Z,105.12
2018-04-02T08:40:20.686Z,87.75
2018-04-02T08:42:48.505Z,91.47
2018-04-02T08:45:16.960Z,91.65
2018-04-02T08:47:44.577Z,96.87
2018-04-02T08:50:13.006Z,93.20
2018-04-02T08:52:40.755Z,97.53
2018-04-02T08:55:08.418Z,85.05
2018-04-02T08:57:36.102Z,90.70
2018-04-02T09:00:03.823Z,99.72
2018-04-02T09:02:31.480Z,85.12
2018-04-02T09:04:59.175Z,81.97
2018-04-02T09:07:26.807Z,69.82
2018-04-02T09:09:54.663Z,76.70
2018-04-02T09:12:23.244Z,70.37
2018-04-02T09:14:52.392Z,68.68
2018-04-02T09:17:20.101Z,66.80
2018-04-02T09:19:48.257Z,63.22
2018-04-02T09:22:15.975Z,59.00
2018-04-02T09:24:43.605Z,62.08
2018-04-02T09:27:12.280Z,67.05
2018-04-02T09:29:40.776Z,72.32
2018-04-02T09:32:08.473Z,56.28
2018-04-02T09:34:36.269Z,64.60
2018-04-02T09:37:04.854Z,62.85
2018-04-02T09:39:32.545Z,62.40
2018-04-02T09:42:00.234Z,57.90
2018-04-02T09:44:27.906Z,52.85
2018-04-02T09:46:55.552Z,47.80
2018-04-02T09:49:23.193Z,44.58
2018-04-02T09:51:50.839Z,42.25
2018-04-02T09:54:18.518Z,44.47
2018-04-02T09:56:46.232Z,43.03
2018-04-02T09:59:13.871Z,48.22
2018-04-02T10:01:42.110Z,48.75
2018-04-02T10:04:10.229Z,46.72
2018-04-02T10:06:37.967Z,45.35
2018-04-02T10:09:06.494Z,37.03
2018-04-02T10:11:34.256Z,45.03
2018-04-02T10:14:02.076Z,46.50
2018-04-02T10:16:29.710Z,47.58
2018-04-02T10:18:58.095Z,50.58
2018-04-02T10:21:25.769Z,48.95
2018-04-02T10:23:53.487Z,44.75
2018-04-02T10:26:21.104Z,45.60
2018-04-02T10:28:48.794Z,51.25
2018-04-02T10:31:17.184Z,45.63
2018-04-02T10:33:44.776Z,41.92
2018-04-02T10:36:13.110Z,45.78
2018-04-02T10:38:41.720Z,49.40
2018-04-02T10:41:09.506Z,47.88
2018-04-02T10:43:38.175Z,44.90
2018-04-02T10:46:05.917Z,47.58
2018-04-02T10:48:33.621Z,40.15
2018-04-02T10:51:01.820Z,46.42
2018-04-02T10:53:30.248Z,43.10
2018-04-02T10:55:58.012Z,41.42
2018-04-02T10:58:25.755Z,38.50
2018-04-02T11:00:53.622Z,39.50
2018-04-02T11:03:21.266Z,39.58
2018-04-02T11:05:49.665Z,38.75
2018-04-02T11:08:17.292Z,40.70
2018-04-02T11:10:44.924Z,35.83
2018-04-02T11:13:12.566Z,36.72
2018-04-02T11:15:40.234Z,35.63
2018-04-02T11:18:07.995Z,34.67
2018-04-02T11:20:35.693Z,35.50
2018-04-02T11:23:04.121Z,33.78
2018-04-02T11:25:31.787Z,35.42
2018-04-02T11:27:59.420Z,33.38
2018-04-02T11:30:28.024Z,34.03
2018-04-02T11:32:55.692Z,30.55
2018-04-02T11:35:23.371Z,33.83
2018-04-02T11:37:51.221Z,36.13
2018-04-02T11:40:18.910Z,32.08
2018-04-02T11:42:46.750Z,35.08
2018-04-02T11:45:14.448Z,28.70
2018-04-02T11:47:42.246Z,30.85
2018-04-02T11:50:10.096Z,37.53
2018-04-02T11:52:37.793Z,33.90
2018-04-02T11:55:05.454Z,28.83
2018-04-02T11:57:33.100Z,29.90
2018-04-02T12:00:01.520Z,26.58
2018-04-02T12:02:29.164Z,26.50
2018-04-02T12:04:56.851Z,33.95
2018-04-02T12:07:24.458Z,24.10
2018-04-02T12:09:52.900Z,22.35
2018-04-02T12:12:20.525Z,19.83
2018-04-02T12:14:48.223Z,18.73
2018-04-02T12:17:15.808Z,11.07
2018-04-02T12:19:43.423Z,15.40
2018-04-02T12:22:11.076Z,12.98
2018-04-02T12:24:38.721Z,14.23
2018-04-02T12:27:07.192Z,8.35
2018-04-02T12:29:35.330Z,8.95
2018-04-02T12:32:03.119Z,13.05
2018-04-02T12:34:30.782Z,10.48
2018-04-02T12:36:58.493Z,8.40
2018-04-02T12:39:26.192Z,8.55
2018-04-02T12:41:53.924Z,12.52
2018-04-02T12:44:21.593Z,9.10
2018-04-02T12:46:49.379Z,9.30
2018-04-02T12:49:16.973Z,8.55
2018-04-02T12:51:44.668Z,7.82
2018-04-02T12:54:12.318Z,7.95
2018-04-02T12:56:40.703Z,7.62
2018-04-02T12:59:08.525Z,8.57
2018-04-02T13:01:37.205Z,6.65
2018-04-02T13:04:04.890Z,8.25
2018-04-02T13:06:33.345Z,9.38
2018-04-02T13:09:00.970Z,9.65
2018-04-02T13:11:29.643Z,15.38
2018-04-02T13:13:57.342Z,10.40
2018-04-02T13:16:25.622Z,10.82
2018-04-02T13:18:53.312Z,10.55
2018-04-02T13:21:21.811Z,9.30
2018-04-02T13:23:53.187Z,11.30
2018-04-02T13:26:20.856Z,9.15
2018-04-02T13:28:48.609Z,11.20
2018-04-02T13:33:51.464Z,9.75
2018-04-02T13:36:19.140Z,10.25
2018-04-02T13:38:47.128Z,9.63
2018-04-02T13:41:14.934Z,11.85
2018-04-02T13:43:43.324Z,9.55
2018-04-02T13:46:10.975Z,7.05
2018-04-02T13:48:38.812Z,9.27
2018-04-02T13:51:07.839Z,10.57
2018-04-02T13:53:35.554Z,11.50
2018-04-02T13:56:03.229Z,8.93
2018-04-02T13:58:30.987Z,8.98
2018-04-02T14:00:58.675Z,11.60
2018-04-02T14:03:26.282Z,10.50
2018-04-02T14:05:54.871Z,11.77
2018-04-02T14:08:24.024Z,10.65
2018-04-02T14:10:52.789Z,10.10
2018-04-02T14:13:21.271Z,10.80
2018-04-02T14:15:48.862Z,11.60
2018-04-02T14:18:16.616Z,9.88
2018-04-02T14:20:44.363Z,9.93
2018-04-02T14:23:11.962Z,8.65
2018-04-02T14:25:39.581Z,5.93
2018-04-02T14:28:09.053Z,9.15
2018-04-02T14:30:36.674Z,7.43
2018-04-02T14:33:04.586Z,7.95
2018-04-02T14:35:33.165Z,7.03
2018-04-02T14:38:02.402Z,7.90
2018-04-02T14:40:30.036Z,5.93
2018-04-02T14:42:58.706Z,11.10
2018-04-02T14:45:26.364Z,7.62
2018-04-02T14:47:54.682Z,8.27
2018-04-02T14:50:23.089Z,6.75
2018-04-02T14:52:50.729Z,6.03
2018-04-02T14:55:18.457Z,6.55
2018-04-02T14:57:46.930Z,5.53
2018-04-02T15:00:14.830Z,5.20
2018-04-02T15:02:42.501Z,7.22
2018-04-02T15:05:10.401Z,3.80
2018-04-02T15:07:38.021Z,8.23
2018-04-02T15:10:05.860Z,4.05
2018-04-02T15:12:33.649Z,4.30
2018-04-02T15:15:01.711Z,5.47
2018-04-02T15:17:29.347Z,8.85
2018-04-02T15:19:56.959Z,6.80
2018-04-02T15:22:24.698Z,5.62
2018-04-02T15:24:53.013Z,7.47
2018-04-02T15:27:20.612Z,5.40
2018-04-02T15:29:49.037Z,4.37
2018-04-02T15:32:18.348Z,4.83
2018-04-02T15:34:46.241Z,2.70
2018-04-02T15:37:14.582Z,3.53
2018-04-02T15:39:42.300Z,3.00
2018-04-02T15:42:09.969Z,9.95
2018-04-02T15:44:37.622Z,6.93
2018-04-02T15:47:06.002Z,4.30
2018-04-02T15:49:33.618Z,3.77
2018-04-02T15:52:01.358Z,4.18
2018-04-02T15:54:30.105Z,3.37
2018-04-02T15:56:57.698Z,3.08
2018-04-02T15:59:26.131Z,6.07
2018-04-02T16:01:53.739Z,4.43
2018-04-02T16:04:22.097Z,7.93
2018-04-02T16:06:49.758Z,6.65
2018-04-02T16:09:17.366Z,6.28
2018-04-02T16:11:45.060Z,3.60
2018-04-02T16:14:12.674Z,7.20
2018-04-02T16:16:40.307Z,8.30
2018-04-02T16:19:07.958Z,6.22
2018-04-02T16:21:35.813Z,8.03
2018-04-02T16:24:03.482Z,3.55
2018-04-02T16:26:31.191Z,9.45
2018-04-02T16:28:59.106Z,5.53
2018-04-02T16:31:26.763Z,4.15
2018-04-02T16:33:54.419Z,4.57
2018-04-02T16:36:22.050Z,5.28
2018-04-02T16:38:49.650Z,4.32
2018-04-02T16:41:17.328Z,17.55
2018-04-02T16:43:44.943Z,7.43
2018-04-02T16:46:12.863Z,6.68
2018-04-02T16:48:40.757Z,5.53
2018-04-02T16:51:08.360Z,7.37
2018-04-02T16:53:35.961Z,5.15
2018-04-02T16:56:03.597Z,5.82
2018-04-02T16:58:32.160Z,7.80
2018-04-02T17:00:59.814Z,12.30
2018-04-02T17:03:27.489Z,4.40
2018-04-02T17:05:55.185Z,5.05
2018-04-02T17:08:22.771Z,4.28
2018-04-02T17:10:51.142Z,11.60
2018-04-02T17:13:20.009Z,6.20
2018-04-02T17:15:47.694Z,5.22
2018-04-02T17:18:15.626Z,8.90
2018-04-02T17:20:43.811Z,9.20
2018-04-02T17:23:11.503Z,6.57
2018-04-02T17:25:39.352Z,7.47
2018-04-02T17:28:06.952Z,5.93
2018-04-02T17:30:34.644Z,5.82
2018-04-02T17:33:02.561Z,8.05
2018-04-02T17:35:30.200Z,8.10
2018-04-02T17:37:57.797Z,7.28
2018-04-02T17:40:27.060Z,7.82
2018-04-02T17:42:54.745Z,8.05
2018-04-02T17:45:23.244Z,13.38
2018-04-02T17:47:50.856Z,16.02
2018-04-02T17:50:18.623Z,11.10
2018-04-02T17:52:46.268Z,11.20
2018-04-02T17:55:14.671Z,7.30
2018-04-02T17:57:43.155Z,9.45
2018-04-02T18:00:10.983Z,9.25
2018-04-02T18:02:39.040Z,6.97
2018-04-02T18:05:07.354Z,10.85
2018-04-02T18:07:35.510Z,10.50
2018-04-02T18:10:03.753Z,8.98
2018-04-02T18:12:32.299Z,8.25
2018-04-02T18:14:59.904Z,8.23
2018-04-02T18:17:27.584Z,7.87
2018-04-02T18:19:55.239Z,10.43
2018-04-02T18:22:23.557Z,9.63
2018-04-02T18:24:52.012Z,7.35
2018-04-02T18:27:20.855Z,9.00
2018-04-02T18:29:48.618Z,9.15
2018-04-02T18:32:17.000Z,9.75
2018-04-02T18:34:45.338Z,9.57
2018-04-02T18:37:12.958Z,11.55
2018-04-02T18:39:41.463Z,13.18
2018-04-02T18:42:09.686Z,10.10
2018-04-02T18:44:37.360Z,11.63
2018-04-02T18:47:05.094Z,13.25
2018-04-02T18:49:32.796Z,11.93
2018-04-02T18:52:01.270Z,10.88
2018-04-02T18:54:28.875Z,9.68
2018-04-02T18:56:57.351Z,18.10
2018-04-02T18:59:25.845Z,13.00
2018-04-02T19:01:53.477Z,14.18
2018-04-02T19:04:21.090Z,15.73
2018-04-02T19:06:48.826Z,12.60
2018-04-02T19:09:16.698Z,17.37
2018-04-02T19:11:44.517Z,14.43
2018-04-02T19:14:13.025Z,12.93
2018-04-02T19:16:40.827Z,11.05
2018-04-02T19:19:08.635Z,10.45
2018-04-02T19:21:37.176Z,16.12
2018-04-02T19:24:05.008Z,13.32
2018-04-02T19:26:32.660Z,11.00
2018-04-02T19:29:00.268Z,12.27
2018-04-02T19:31:28.030Z,13.95
2018-04-02T19:33:56.868Z,13.27
2018-04-02T19:36:25.334Z,14.85
2018-04-02T19:38:53.894Z,12.55
2018-04-02T19:41:21.571Z,13.93
2018-04-02T19:43:49.253Z,11.63
2018-04-02T19:46:18.370Z,12.07
2018-04-02T19:48:48.031Z,10.82
2018-04-02T19:51:15.707Z,9.52
2018-04-02T19:53:43.459Z,13.77
2018-04-02T19:56:12.045Z,10.98
2018-04-02T19:58:39.705Z,10.52
2018-04-02T20:01:07.365Z,11.27
2018-04-02T20:03:35.034Z,10.13
2018-04-02T20:06:02.708Z,11.27
2018-04-02T20:08:30.327Z,10.02
2018-04-02T20:10:57.937Z,9.65
2018-04-02T20:13:25.659Z,14.02
2018-04-02T20:15:53.268Z,10.57
2018-04-02T20:18:20.902Z,10.40
2018-04-02T20:20:48.812Z,10.27
2018-04-02T20:23:16.747Z,9.13
2018-04-02T20:25:44.361Z,10.02
2018-04-02T20:28:12.211Z,8.20
2018-04-02T20:30:40.022Z,8.77
2018-04-02T20:33:09.241Z,7.43
2018-04-02T20:35:38.083Z,10.05
2018-04-02T20:38:05.753Z,10.43
2018-04-02T20:40:34.439Z,7.82
2018-04-02T20:43:02.988Z,8.73
2018-04-02T20:45:33.383Z,14.63
2018-04-02T20:48:01.537Z,9.45
2018-04-02T20:50:29.264Z,14.07
2018-04-02T20:52:56.907Z,11.75
2018-04-02T20:55:24.957Z,14.27
2018-04-02T20:57:53.315Z,7.80
2018-04-02T21:00:21.608Z,8.50
2018-04-02T21:02:49.284Z,8.88
2018-04-02T21:05:17.001Z,11.12
2018-04-02T21:07:44.633Z,16.70
2018-04-02T21:10:12.363Z,11.43
2018-04-02T21:12:39.974Z,12.05
2018-04-02T21:15:07.881Z,10.70
2018-04-02T21:17:35.503Z,13.07
2018-04-02T21:20:04.311Z,10.52
2018-04-02T21:22:31.882Z,10.50
2018-04-02T21:24:59.517Z,12.57
2018-04-02T21:27:27.243Z,13.27
2018-04-02T21:29:56.451Z,12.52
2018-04-02T21:32:24.157Z,8.77
2018-04-02T21:34:51.915Z,9.57
2018-04-02T21:37:19.511Z,11.50
2018-04-02T21:39:47.595Z,12.02
2018-04-02T21:42:15.447Z,12.85
2018-04-02T21:44:44.017Z,14.95
2018-04-02T21:47:11.653Z,13.70
2018-04-02T21:49:40.203Z,9.98
2018-04-02T21:52:08.636Z,12.48
2018-04-02T21:54:36.270Z,12.48
2018-04-02T21:57:04.009Z,12.82
2018-04-02T21:59:31.756Z,11.23
2018-04-02T22:01:59.406Z,13.10
2018-04-02T22:04:28.483Z,8.55
2018-04-02T22:07:03.974Z,9.55
2018-04-02T22:09:31.701Z,9.85
2018-04-02T22:11:59.389Z,10.25
2018-04-02T22:14:27.852Z,7.75
2018-04-02T22:16:55.529Z,10.35
2018-04-02T22:19:23.173Z,8.70
2018-04-02T22:21:50.802Z,8.20
2018-04-02T22:24:18.418Z,9.07
2018-04-02T22:26:46.518Z,11.77
2018-04-02T22:29:14.163Z,7.03
2018-04-02T22:31:42.572Z,7.95
2018-04-02T22:34:10.180Z,7.07
2018-04-02T22:36:37.777Z,6.75
2018-04-02T22:39:06.322Z,7.70
2018-04-02T22:41:34.066Z,5.15
2018-04-02T22:44:01.651Z,9.30
2018-04-02T22:46:29.283Z,8.13
2018-04-02T22:48:56.932Z,6.03
2018-04-02T22:51:24.644Z,7.87
2018-04-02T22:53:53.093Z,8.82
2018-04-02T22:56:20.739Z,8.98
2018-04-02T22:58:48.376Z,4.78
2018-04-02T23:01:16.086Z,5.60
2018-04-02T23:03:43.697Z,5.47
2018-04-02T23:06:12.092Z,5.50
2018-04-02T23:08:39.719Z,5.93
2018-04-02T23:11:08.094Z,8.02
2018-04-02T23:13:35.689Z,4.00
2018-04-02T23:16:03.308Z,7.70
2018-04-02T23:18:30.929Z,7.22
2018-04-02T23:20:59.293Z,4.70
2018-04-02T23:23:27.107Z,5.45
2018-04-02T23:25:55.371Z,7.62
2018-04-02T23:28:22.993Z,2.58
2018-04-02T23:30:50.627Z,8.50
2018-04-02T23:33:19.051Z,3.62
2018-04-02T23:35:46.667Z,4.05
2018-04-02T23:38:15.045Z,2.28
2018-04-02T23:40:42.673Z,6.28
2018-04-02T23:43:11.148Z,2.28
2018-04-02T23:45:38.735Z,2.50
2018-04-02T23:48:06.926Z,3.15
2018-04-02T23:50:35.358Z,4.65
2018-04-02T23:53:02.997Z,3.10
2018-04-02T23:55:30.626Z,4.60
2018-04-02T23:57:58.269Z,3.05
